Gokay K — TCHF — position and weather

sailwx.info

Track history (hours):
 
Tides and Currents Weather Stations Pressure Air Temp Water Temp Dewpoint Dewpoint Depression Visibility Wind Speed Wind Dir Waves Ship Positions

Gokay K

Last reported at 2015-Mar-28 22:21 UTC. Time now 2015-Mar-31 15:33 UTC.
Position N 41°01' E 028°60'.

; draft 4.7 m.

Type: Ship. MMSI: 271000029.

Date/timePositionNaut miles runAvg speedWind from/ knotsBaromVisibWave heightAir tempDewpointWater temp
2015-Mar-28 22:21N 41°01' E 028°60'5 5.6
2015-Mar-28 21:30N 40°57' E 028°57'2 1.2
2015-Mar-28 20:07N 40°58' E 028°56'0 0.0
2015-Mar-28 18:10N 40°58' E 028°56'0 0.0
2015-Mar-28 17:22N 40°58' E 028°56'0 0.0
2015-Mar-28 16:28N 40°58' E 028°56'0 0.0
2015-Mar-28 15:22N 40°58' E 028°56'0 0.0
2015-Mar-28 14:16N 40°58' E 028°56'0 0.0
2015-Mar-28 12:28N 40°58' E 028°56'0 0.0
2015-Mar-28 09:16N 40°58' E 028°56'0 0.0
2015-Mar-28 06:22N 40°58' E 028°56'0 0.0
2015-Mar-28 05:10N 40°58' E 028°56'0 0.0
2015-Mar-28 03:28N 40°58' E 028°56'0 0.0
2015-Mar-28 02:28N 40°58' E 028°56'0 0.0
2015-Mar-28 00:10N 40°58' E 028°56'0 0.1
2015-Mar-27 23:22N 40°58' E 028°56'0 0.0
2015-Mar-27 18:04N 40°58' E 028°56'0 0.0
2015-Mar-27 15:04N 40°58' E 028°56'0 0.0
2015-Mar-27 12:28N 40°58' E 028°56'0 0.0
2015-Mar-27 10:22N 40°58' E 028°56'0 0.0
2015-Mar-27 08:04N 40°58' E 028°56'0 0.0
2015-Mar-27 07:22N 40°58' E 028°56'0 0.0
2015-Mar-26 14:31N 40°58' E 028°56'0 0.0
2015-Mar-26 13:19N 40°58' E 028°56'0 0.0
2015-Mar-26 12:31N 40°58' E 028°56'0 0.0
2015-Mar-26 11:31N 40°58' E 028°56'0 0.0
2015-Mar-26 10:25N 40°58' E 028°56'0 0.0
2015-Mar-26 09:31N 40°58' E 028°56'0 0.0
2015-Mar-26 08:07N 40°58' E 028°56'0 0.0
2015-Mar-26 07:07N 40°58' E 028°56'0 0.0
2015-Mar-26 06:25N 40°58' E 028°56'0 0.0
2015-Mar-26 05:31N 40°58' E 028°56'0 0.0
2015-Mar-26 04:31N 40°58' E 028°56'0 0.0
2015-Mar-26 03:31N 40°58' E 028°56'0 0.0
2015-Mar-26 02:13N 40°58' E 028°56'0 0.0
2015-Mar-26 01:25N 40°58' E 028°56'0 0.0
2015-Mar-26 00:19N 40°58' E 028°56'0 0.0
2015-Mar-25 23:25N 40°58' E 028°56'0 0.0
2015-Mar-25 22:19N 40°58' E 028°56'0 0.0
2015-Mar-25 20:28N 40°58' E 028°56'0 0.0
2015-Mar-25 19:28N 40°58' E 028°56'0 0.0
2015-Mar-25 18:28N 40°58' E 028°56'0 0.0
2015-Mar-25 17:22N 40°58' E 028°56'0 0.0
2015-Mar-25 16:04N 40°58' E 028°56'0 0.0
2015-Mar-25 15:28N 40°58' E 028°56'0 0.0
2015-Mar-25 14:22N 40°58' E 028°56'0 0.1
2015-Mar-25 13:33N 40°58' E 028°56'0 0.0
2015-Mar-25 12:33N 40°58' E 028°56'0 0.0
2015-Mar-25 11:33N 40°58' E 028°56'0 0.3
2015-Mar-25 10:33N 40°58' E 028°56'8 8.4
2015-Mar-25 09:33N 40°50' E 029°01'10 9.8
2015-Mar-25 08:33N 40°42' E 028°53'1010.0
2015-Mar-25 07:33N 40°34' E 028°46'17 8.5
2015-Mar-25 05:33N 40°25' E 029°05'  
2015-Mar-22 20:32N 40°26' E 029°02'  
Track history (hours):
 
Tides and Currents Weather Stations Pressure Air Temp Water Temp Dewpoint Dewpoint Depression Visibility Wind Speed Wind Dir Waves Ship Positions

Gokay K

Last reported at 2015-Mar-28 22:21 UTC. Time now 2015-Mar-31 15:33 UTC.
Position N 41°01' E 028°60'.

; draft 4.7 m.

Type: Ship. MMSI: 271000029.

Date/timePositionNaut miles runAvg speedWind from/ knotsBaromVisibWave heightAir tempDewpointWater temp
2015-Mar-28 22:21N 41°01' E 028°60'5 5.6
2015-Mar-28 21:30N 40°57' E 028°57'2 1.2
2015-Mar-28 20:07N 40°58' E 028°56'0 0.0
2015-Mar-28 18:10N 40°58' E 028°56'0 0.0
2015-Mar-28 17:22N 40°58' E 028°56'0 0.0
2015-Mar-28 16:28N 40°58' E 028°56'0 0.0
2015-Mar-28 15:22N 40°58' E 028°56'0 0.0
2015-Mar-28 14:16N 40°58' E 028°56'0 0.0
2015-Mar-28 12:28N 40°58' E 028°56'0 0.0
2015-Mar-28 09:16N 40°58' E 028°56'0 0.0
2015-Mar-28 06:22N 40°58' E 028°56'0 0.0
2015-Mar-28 05:10N 40°58' E 028°56'0 0.0
2015-Mar-28 03:28N 40°58' E 028°56'0 0.0
2015-Mar-28 02:28N 40°58' E 028°56'0 0.0
2015-Mar-28 00:10N 40°58' E 028°56'0 0.1
2015-Mar-27 23:22N 40°58' E 028°56'0 0.0
2015-Mar-27 18:04N 40°58' E 028°56'0 0.0
2015-Mar-27 15:04N 40°58' E 028°56'0 0.0
2015-Mar-27 12:28N 40°58' E 028°56'0 0.0
2015-Mar-27 10:22N 40°58' E 028°56'0 0.0
2015-Mar-27 08:04N 40°58' E 028°56'0 0.0
2015-Mar-27 07:22N 40°58' E 028°56'0 0.0
2015-Mar-26 14:31N 40°58' E 028°56'0 0.0
2015-Mar-26 13:19N 40°58' E 028°56'0 0.0
2015-Mar-26 12:31N 40°58' E 028°56'0 0.0
2015-Mar-26 11:31N 40°58' E 028°56'0 0.0
2015-Mar-26 10:25N 40°58' E 028°56'0 0.0
2015-Mar-26 09:31N 40°58' E 028°56'0 0.0
2015-Mar-26 08:07N 40°58' E 028°56'0 0.0
2015-Mar-26 07:07N 40°58' E 028°56'0 0.0
2015-Mar-26 06:25N 40°58' E 028°56'0 0.0
2015-Mar-26 05:31N 40°58' E 028°56'0 0.0
2015-Mar-26 04:31N 40°58' E 028°56'0 0.0
2015-Mar-26 03:31N 40°58' E 028°56'0 0.0
2015-Mar-26 02:13N 40°58' E 028°56'0 0.0
2015-Mar-26 01:25N 40°58' E 028°56'0 0.0
2015-Mar-26 00:19N 40°58' E 028°56'0 0.0
2015-Mar-25 23:25N 40°58' E 028°56'0 0.0
2015-Mar-25 22:19N 40°58' E 028°56'0 0.0
2015-Mar-25 20:28N 40°58' E 028°56'0 0.0
2015-Mar-25 19:28N 40°58' E 028°56'0 0.0
2015-Mar-25 18:28N 40°58' E 028°56'0 0.0
2015-Mar-25 17:22N 40°58' E 028°56'0 0.0
2015-Mar-25 16:04N 40°58' E 028°56'0 0.0
2015-Mar-25 15:28N 40°58' E 028°56'0 0.0
2015-Mar-25 14:22N 40°58' E 028°56'0 0.1
2015-Mar-25 13:33N 40°58' E 028°56'0 0.0
2015-Mar-25 12:33N 40°58' E 028°56'0 0.0
2015-Mar-25 11:33N 40°58' E 028°56'0 0.3
2015-Mar-25 10:33N 40°58' E 028°56'8 8.4
2015-Mar-25 09:33N 40°50' E 029°01'10 9.8
2015-Mar-25 08:33N 40°42' E 028°53'1010.0
2015-Mar-25 07:33N 40°34' E 028°46'17 8.5
2015-Mar-25 05:33N 40°25' E 029°05'  
2015-Mar-22 20:32N 40°26' E 029°02'  

Dump ship's entire track history